Hector — SVA2387 — position and weather

sailwx.info

Track history (hours):
 
Tides and Currents Weather Stations Pressure Air Temp Water Temp Dewpoint Dewpoint Depression Visibility Wind Speed Wind Dir Waves Ship Positions

Hector

Last reported at 2017-Nov-24 12:11 UTC. Time now 2017-Nov-24 13:06 UTC.
Position N 37°57' E 023°37'.

Length 32 m; draft 5 m.

Type: SAR. MMSI: 240998000.

Date/timePositionNaut miles runAvg speedWind from/ knotsBaromVisibWave heightAir tempDewpointWater temp
2017-Nov-24 12:11N 37°57' E 023°37'0 0.0
2017-Nov-24 12:00N 37°57' E 023°37'0 0.0
2017-Nov-24 11:30N 37°57' E 023°37'0 0.0
2017-Nov-24 11:00N 37°57' E 023°37'1 2.1
2017-Nov-24 10:30N 37°57' E 023°35'1 2.1
2017-Nov-24 10:00N 37°57' E 023°37'0 0.0
2017-Nov-24 09:30N 37°57' E 023°37'1 1.2
2017-Nov-24 09:00N 37°57' E 023°36'1 1.2
2017-Nov-24 08:30N 37°57' E 023°37'0 0.0
2017-Nov-24 08:00N 37°57' E 023°37'0 0.0
2017-Nov-24 07:30N 37°57' E 023°37'0 0.0
2017-Nov-24 07:00N 37°57' E 023°37'0 0.0
2017-Nov-24 06:30N 37°57' E 023°37'0 0.0
2017-Nov-24 06:00N 37°57' E 023°37'0 0.0
2017-Nov-24 05:30N 37°57' E 023°37'0 0.0
2017-Nov-24 05:00N 37°57' E 023°37'0 0.0
2017-Nov-24 04:30N 37°57' E 023°37'0 0.0
2017-Nov-24 04:00N 37°57' E 023°37'0 0.0
2017-Nov-23 17:38N 37°57' E 023°37'0 0.0
2017-Nov-23 17:30N 37°57' E 023°37'0 0.0
2017-Nov-23 17:00N 37°57' E 023°37'0 0.0
2017-Nov-23 16:30N 37°57' E 023°37'0 0.0
2017-Nov-23 16:00N 37°57' E 023°37'0 0.0
2017-Nov-23 15:30N 37°57' E 023°37'0 0.0
2017-Nov-23 15:00N 37°57' E 023°37'0 0.0
2017-Nov-23 14:30N 37°57' E 023°37'0 0.0
2017-Nov-23 14:00N 37°57' E 023°37'0 0.0
2017-Nov-23 13:30N 37°57' E 023°37'0 0.0
2017-Nov-23 13:00N 37°57' E 023°37'0 0.0
2017-Nov-23 12:30N 37°57' E 023°37'1 1.3
2017-Nov-23 12:00N 37°57' E 023°36'1 1.3
2017-Nov-23 11:30N 37°58' E 023°36'0 0.7
2017-Nov-23 11:00N 37°57' E 023°37'0 0.0
2017-Nov-23 10:30N 37°57' E 023°37'0 0.0
2017-Nov-23 10:00N 37°57' E 023°37'0 0.0
2017-Nov-23 09:30N 37°57' E 023°37'0 0.0
2017-Nov-23 09:00N 37°57' E 023°37'0 0.0
2017-Nov-23 08:30N 37°57' E 023°37'0 0.0
2017-Nov-23 08:00N 37°57' E 023°37'0 0.0
2017-Nov-23 07:30N 37°57' E 023°37'0 0.0
2017-Nov-23 07:00N 37°57' E 023°37'0 0.0
2017-Nov-23 06:30N 37°57' E 023°37'0 0.0
2017-Nov-23 06:00N 37°57' E 023°37'1 1.3
2017-Nov-23 05:30N 37°57' E 023°36'0 0.1
2017-Nov-23 05:00N 37°57' E 023°36'0 1.0
2017-Nov-23 04:30N 37°57' E 023°36'0 0.8
2017-Nov-23 04:00N 37°57' E 023°37'  
2017-Nov-18 12:15N 37°57' E 023°36'1 2.4
2017-Nov-18 12:00N 37°57' E 023°36'0 0.9
2017-Nov-18 11:30N 37°57' E 023°35'1 1.3
2017-Nov-18 11:00N 37°57' E 023°36'1 2.3
2017-Nov-18 10:30N 37°57' E 023°35'4 8.3
2017-Nov-18 10:00N 38°01' E 023°35'1 1.2
2017-Nov-18 09:30N 38°02' E 023°36'0 0.7
2017-Nov-18 09:00N 38°01' E 023°35'0 0.3
2017-Nov-18 08:30N 38°01' E 023°35'2 3.4
2017-Nov-18 08:00N 38°00' E 023°34'3 5.7
2017-Nov-18 07:30N 37°58' E 023°33'3 5.3
2017-Nov-18 07:00N 37°57' E 023°37'0 0.0
2017-Nov-18 06:28N 37°57' E 023°37'1 3.0
2017-Nov-18 06:00N 37°57' E 023°35'1 1.7
2017-Nov-18 05:30N 37°57' E 023°36'0 0.1
2017-Nov-18 05:00N 37°57' E 023°36'1 1.1
2017-Nov-18 04:30N 37°57' E 023°36'0 0.4
2017-Nov-18 03:49N 37°57' E 023°37'0 0.0
2017-Nov-17 11:08N 37°57' E 023°37'0 0.0
2017-Nov-17 11:00N 37°57' E 023°37'1 1.1
2017-Nov-17 10:30N 37°57' E 023°36'0 0.2
2017-Nov-17 10:00N 37°57' E 023°36'0 0.0
2017-Nov-17 09:30N 37°57' E 023°36'0 0.0
2017-Nov-17 09:00N 37°57' E 023°36'0 0.0
2017-Nov-17 08:30N 37°57' E 023°36'0 0.0
2017-Nov-17 08:00N 37°57' E 023°36'0 0.0
2017-Nov-17 07:30N 37°57' E 023°36'0 0.0
2017-Nov-17 07:00N 37°57' E 023°36'0 0.2
2017-Nov-17 06:30N 37°57' E 023°36'1 1.3
2017-Nov-17 06:00N 37°57' E 023°37'0 0.0
2017-Nov-17 05:30N 37°57' E 023°37'0 0.0
2017-Nov-17 05:00N 37°57' E 023°37'0 0.0
2017-Nov-17 04:30N 37°57' E 023°37'0 0.0
2017-Nov-17 04:00N 37°57' E 023°37'0 0.0
2017-Nov-17 03:31N 37°57' E 023°37'0 0.0
2017-Nov-17 03:01N 37°57' E 023°37'0 0.0
2017-Nov-17 02:31N 37°57' E 023°37'0 0.0
2017-Nov-17 02:01N 37°57' E 023°37'0 0.0
2017-Nov-17 01:31N 37°57' E 023°37'0 0.0
2017-Nov-17 01:01N 37°57' E 023°37'0 0.0
2017-Nov-17 00:30N 37°57' E 023°37'0 0.0
2017-Nov-17 00:01N 37°57' E 023°37'0 0.0
2017-Nov-16 23:31N 37°57' E 023°37'0 0.0
2017-Nov-16 23:01N 37°57' E 023°37'0 0.0
2017-Nov-16 22:31N 37°57' E 023°37'0 0.0
2017-Nov-16 22:01N 37°57' E 023°37'0 0.0
2017-Nov-16 21:30N 37°57' E 023°37'0 0.0
2017-Nov-16 21:01N 37°57' E 023°37'0 0.0
2017-Nov-16 20:31N 37°57' E 023°37'0 0.0
2017-Nov-16 20:01N 37°57' E 023°37'0 0.0
2017-Nov-16 19:31N 37°57' E 023°37'0 0.0
2017-Nov-16 19:01N 37°57' E 023°37'0 0.0
2017-Nov-16 18:31N 37°57' E 023°37'0 0.0
2017-Nov-16 18:01N 37°57' E 023°37'0 0.0
2017-Nov-16 17:31N 37°57' E 023°37'0 0.0
2017-Nov-16 17:01N 37°57' E 023°37'2 4.3
2017-Nov-16 16:31N 37°57' E 023°34'510.4
2017-Nov-16 16:01N 38°02' E 023°32'0 0.7
2017-Nov-16 15:30N 38°02' E 023°32'0 0.0
2017-Nov-16 15:00N 38°02' E 023°32'0 0.0
2017-Nov-16 14:30N 38°02' E 023°32'0 0.0
2017-Nov-16 14:00N 38°02' E 023°32'0 0.0
2017-Nov-16 13:30N 38°02' E 023°32'0 0.0
2017-Nov-16 13:00N 38°02' E 023°32'0 0.0
2017-Nov-16 12:29N 38°02' E 023°32'0 0.0
2017-Nov-16 12:00N 38°02' E 023°32'0 0.0
2017-Nov-16 11:30N 38°02' E 023°32'0 0.0
2017-Nov-16 11:00N 38°02' E 023°32'0 0.0
2017-Nov-16 10:30N 38°02' E 023°32'0 0.0
2017-Nov-16 10:01N 38°02' E 023°32'2 3.7
2017-Nov-16 09:30N 38°02' E 023°35'1 1.8
2017-Nov-16 09:01N 38°02' E 023°36'0 0.4
2017-Nov-16 08:27N 38°01' E 023°35'0 0.0
2017-Nov-16 08:01N 38°01' E 023°36'0 0.0
2017-Nov-16 07:30N 38°01' E 023°36'3 5.8
2017-Nov-16 06:59N 37°59' E 023°33'3 6.3
2017-Nov-16 06:30N 37°57' E 023°36'0 0.3
2017-Nov-16 06:00N 37°57' E 023°36'1 1.5
2017-Nov-16 05:30N 37°57' E 023°36'1 2.0
2017-Nov-16 05:00N 37°57' E 023°37'0 0.0
2017-Nov-16 04:30N 37°57' E 023°37'0 0.0
2017-Nov-16 04:00N 37°57' E 023°37'0 0.0
2017-Nov-16 03:30N 37°57' E 023°37'0 0.0
2017-Nov-16 03:00N 37°57' E 023°37'0 0.0
2017-Nov-16 02:30N 37°57' E 023°37'0 0.0
2017-Nov-16 02:00N 37°57' E 023°37'0 0.0
2017-Nov-16 01:30N 37°57' E 023°37'0 0.0
2017-Nov-16 01:00N 37°57' E 023°37'0 0.0
2017-Nov-16 00:30N 37°57' E 023°37'0 0.0
2017-Nov-16 00:00N 37°57' E 023°37'0 0.0
2017-Nov-15 23:30N 37°57' E 023°37'0 0.0
2017-Nov-15 23:00N 37°57' E 023°37'0 0.0
2017-Nov-15 22:30N 37°57' E 023°37'0 0.0
2017-Nov-15 22:00N 37°57' E 023°37'0 0.0
2017-Nov-15 21:30N 37°57' E 023°37'0 0.0
2017-Nov-15 21:00N 37°57' E 023°37'0 0.0
2017-Nov-15 20:30N 37°57' E 023°37'0 0.0
2017-Nov-15 20:00N 37°57' E 023°37'0 0.0
2017-Nov-15 19:30N 37°57' E 023°37'0 0.0
2017-Nov-15 19:00N 37°57' E 023°37'0 0.0
2017-Nov-15 18:30N 37°57' E 023°37'0 0.0
2017-Nov-15 18:00N 37°57' E 023°37'0 0.0
2017-Nov-15 17:03N 37°57' E 023°37'0 0.2
2017-Nov-15 17:00N 37°57' E 023°37'0 0.0
2017-Nov-15 16:30N 37°57' E 023°37'0 0.0
2017-Nov-15 16:00N 37°57' E 023°37'0 0.0
2017-Nov-15 15:26N 37°57' E 023°37'0 0.0
2017-Nov-15 14:56N 37°57' E 023°37'0 0.0
2017-Nov-15 14:30N 37°57' E 023°37'0 0.0
2017-Nov-15 14:00N 37°57' E 023°37'0 0.0
2017-Nov-15 13:30N 37°57' E 023°37'0 0.0
2017-Nov-15 13:00N 37°57' E 023°37'0 0.0
2017-Nov-15 12:30N 37°57' E 023°37'0 0.0
2017-Nov-15 12:00N 37°57' E 023°37'0 0.0
2017-Nov-15 11:30N 37°57' E 023°37'0 0.8
2017-Nov-15 11:00N 37°57' E 023°36'0 0.8
2017-Nov-15 10:30N 37°57' E 023°37'0 0.0
2017-Nov-15 10:00N 37°57' E 023°37'0 0.0
2017-Nov-15 09:30N 37°57' E 023°37'0 0.0
2017-Nov-15 09:00N 37°57' E 023°37'0 0.0
2017-Nov-15 08:30N 37°57' E 023°37'0 0.0
2017-Nov-15 08:00N 37°57' E 023°37'0 0.9
2017-Nov-15 07:30N 37°57' E 023°36'0 0.2
2017-Nov-15 07:00N 37°57' E 023°36'0 0.6
2017-Nov-15 06:30N 37°57' E 023°37'0 0.0
2017-Nov-15 06:00N 37°57' E 023°37'0 0.0
2017-Nov-15 05:30N 37°57' E 023°37'  
Track history (hours):
 
Tides and Currents Weather Stations Pressure Air Temp Water Temp Dewpoint Dewpoint Depression Visibility Wind Speed Wind Dir Waves Ship Positions

Hector

Last reported at 2017-Nov-24 12:11 UTC. Time now 2017-Nov-24 13:06 UTC.
Position N 37°57' E 023°37'.

Length 32 m; draft 5 m.

Type: SAR. MMSI: 240998000.

Date/timePositionNaut miles runAvg speedWind from/ knotsBaromVisibWave heightAir tempDewpointWater temp
2017-Nov-24 12:11N 37°57' E 023°37'0 0.0
2017-Nov-24 12:00N 37°57' E 023°37'0 0.0
2017-Nov-24 11:30N 37°57' E 023°37'0 0.0
2017-Nov-24 11:00N 37°57' E 023°37'1 2.1
2017-Nov-24 10:30N 37°57' E 023°35'1 2.1
2017-Nov-24 10:00N 37°57' E 023°37'0 0.0
2017-Nov-24 09:30N 37°57' E 023°37'1 1.2
2017-Nov-24 09:00N 37°57' E 023°36'1 1.2
2017-Nov-24 08:30N 37°57' E 023°37'0 0.0
2017-Nov-24 08:00N 37°57' E 023°37'0 0.0
2017-Nov-24 07:30N 37°57' E 023°37'0 0.0
2017-Nov-24 07:00N 37°57' E 023°37'0 0.0
2017-Nov-24 06:30N 37°57' E 023°37'0 0.0
2017-Nov-24 06:00N 37°57' E 023°37'0 0.0
2017-Nov-24 05:30N 37°57' E 023°37'0 0.0
2017-Nov-24 05:00N 37°57' E 023°37'0 0.0
2017-Nov-24 04:30N 37°57' E 023°37'0 0.0
2017-Nov-24 04:00N 37°57' E 023°37'0 0.0
2017-Nov-23 17:38N 37°57' E 023°37'0 0.0
2017-Nov-23 17:30N 37°57' E 023°37'0 0.0
2017-Nov-23 17:00N 37°57' E 023°37'0 0.0
2017-Nov-23 16:30N 37°57' E 023°37'0 0.0
2017-Nov-23 16:00N 37°57' E 023°37'0 0.0
2017-Nov-23 15:30N 37°57' E 023°37'0 0.0
2017-Nov-23 15:00N 37°57' E 023°37'0 0.0
2017-Nov-23 14:30N 37°57' E 023°37'0 0.0
2017-Nov-23 14:00N 37°57' E 023°37'0 0.0
2017-Nov-23 13:30N 37°57' E 023°37'0 0.0
2017-Nov-23 13:00N 37°57' E 023°37'0 0.0
2017-Nov-23 12:30N 37°57' E 023°37'1 1.3
2017-Nov-23 12:00N 37°57' E 023°36'1 1.3
2017-Nov-23 11:30N 37°58' E 023°36'0 0.7
2017-Nov-23 11:00N 37°57' E 023°37'0 0.0
2017-Nov-23 10:30N 37°57' E 023°37'0 0.0
2017-Nov-23 10:00N 37°57' E 023°37'0 0.0
2017-Nov-23 09:30N 37°57' E 023°37'0 0.0
2017-Nov-23 09:00N 37°57' E 023°37'0 0.0
2017-Nov-23 08:30N 37°57' E 023°37'0 0.0
2017-Nov-23 08:00N 37°57' E 023°37'0 0.0
2017-Nov-23 07:30N 37°57' E 023°37'0 0.0
2017-Nov-23 07:00N 37°57' E 023°37'0 0.0
2017-Nov-23 06:30N 37°57' E 023°37'0 0.0
2017-Nov-23 06:00N 37°57' E 023°37'1 1.3
2017-Nov-23 05:30N 37°57' E 023°36'0 0.1
2017-Nov-23 05:00N 37°57' E 023°36'0 1.0
2017-Nov-23 04:30N 37°57' E 023°36'0 0.8
2017-Nov-23 04:00N 37°57' E 023°37'  
2017-Nov-18 12:15N 37°57' E 023°36'1 2.4
2017-Nov-18 12:00N 37°57' E 023°36'0 0.9
2017-Nov-18 11:30N 37°57' E 023°35'1 1.3
2017-Nov-18 11:00N 37°57' E 023°36'1 2.3
2017-Nov-18 10:30N 37°57' E 023°35'4 8.3
2017-Nov-18 10:00N 38°01' E 023°35'1 1.2
2017-Nov-18 09:30N 38°02' E 023°36'0 0.7
2017-Nov-18 09:00N 38°01' E 023°35'0 0.3
2017-Nov-18 08:30N 38°01' E 023°35'2 3.4
2017-Nov-18 08:00N 38°00' E 023°34'3 5.7
2017-Nov-18 07:30N 37°58' E 023°33'3 5.3
2017-Nov-18 07:00N 37°57' E 023°37'0 0.0
2017-Nov-18 06:28N 37°57' E 023°37'1 3.0
2017-Nov-18 06:00N 37°57' E 023°35'1 1.7
2017-Nov-18 05:30N 37°57' E 023°36'0 0.1
2017-Nov-18 05:00N 37°57' E 023°36'1 1.1
2017-Nov-18 04:30N 37°57' E 023°36'0 0.4
2017-Nov-18 03:49N 37°57' E 023°37'0 0.0
2017-Nov-17 11:08N 37°57' E 023°37'0 0.0
2017-Nov-17 11:00N 37°57' E 023°37'1 1.1
2017-Nov-17 10:30N 37°57' E 023°36'0 0.2
2017-Nov-17 10:00N 37°57' E 023°36'0 0.0
2017-Nov-17 09:30N 37°57' E 023°36'0 0.0
2017-Nov-17 09:00N 37°57' E 023°36'0 0.0
2017-Nov-17 08:30N 37°57' E 023°36'0 0.0
2017-Nov-17 08:00N 37°57' E 023°36'0 0.0
2017-Nov-17 07:30N 37°57' E 023°36'0 0.0
2017-Nov-17 07:00N 37°57' E 023°36'0 0.2
2017-Nov-17 06:30N 37°57' E 023°36'1 1.3
2017-Nov-17 06:00N 37°57' E 023°37'0 0.0
2017-Nov-17 05:30N 37°57' E 023°37'0 0.0
2017-Nov-17 05:00N 37°57' E 023°37'0 0.0
2017-Nov-17 04:30N 37°57' E 023°37'0 0.0
2017-Nov-17 04:00N 37°57' E 023°37'0 0.0
2017-Nov-17 03:31N 37°57' E 023°37'0 0.0
2017-Nov-17 03:01N 37°57' E 023°37'0 0.0
2017-Nov-17 02:31N 37°57' E 023°37'0 0.0
2017-Nov-17 02:01N 37°57' E 023°37'0 0.0
2017-Nov-17 01:31N 37°57' E 023°37'0 0.0
2017-Nov-17 01:01N 37°57' E 023°37'0 0.0
2017-Nov-17 00:30N 37°57' E 023°37'0 0.0
2017-Nov-17 00:01N 37°57' E 023°37'0 0.0
2017-Nov-16 23:31N 37°57' E 023°37'0 0.0
2017-Nov-16 23:01N 37°57' E 023°37'0 0.0
2017-Nov-16 22:31N 37°57' E 023°37'0 0.0
2017-Nov-16 22:01N 37°57' E 023°37'0 0.0
2017-Nov-16 21:30N 37°57' E 023°37'0 0.0
2017-Nov-16 21:01N 37°57' E 023°37'0 0.0
2017-Nov-16 20:31N 37°57' E 023°37'0 0.0
2017-Nov-16 20:01N 37°57' E 023°37'0 0.0
2017-Nov-16 19:31N 37°57' E 023°37'0 0.0
2017-Nov-16 19:01N 37°57' E 023°37'0 0.0
2017-Nov-16 18:31N 37°57' E 023°37'0 0.0
2017-Nov-16 18:01N 37°57' E 023°37'0 0.0
2017-Nov-16 17:31N 37°57' E 023°37'0 0.0
2017-Nov-16 17:01N 37°57' E 023°37'2 4.3
2017-Nov-16 16:31N 37°57' E 023°34'510.4
2017-Nov-16 16:01N 38°02' E 023°32'0 0.7
2017-Nov-16 15:30N 38°02' E 023°32'0 0.0
2017-Nov-16 15:00N 38°02' E 023°32'0 0.0
2017-Nov-16 14:30N 38°02' E 023°32'0 0.0
2017-Nov-16 14:00N 38°02' E 023°32'0 0.0
2017-Nov-16 13:30N 38°02' E 023°32'0 0.0
2017-Nov-16 13:00N 38°02' E 023°32'0 0.0
2017-Nov-16 12:29N 38°02' E 023°32'0 0.0
2017-Nov-16 12:00N 38°02' E 023°32'0 0.0
2017-Nov-16 11:30N 38°02' E 023°32'0 0.0
2017-Nov-16 11:00N 38°02' E 023°32'0 0.0
2017-Nov-16 10:30N 38°02' E 023°32'0 0.0
2017-Nov-16 10:01N 38°02' E 023°32'2 3.7
2017-Nov-16 09:30N 38°02' E 023°35'1 1.8
2017-Nov-16 09:01N 38°02' E 023°36'0 0.4
2017-Nov-16 08:27N 38°01' E 023°35'0 0.0
2017-Nov-16 08:01N 38°01' E 023°36'0 0.0
2017-Nov-16 07:30N 38°01' E 023°36'3 5.8
2017-Nov-16 06:59N 37°59' E 023°33'3 6.3
2017-Nov-16 06:30N 37°57' E 023°36'0 0.3
2017-Nov-16 06:00N 37°57' E 023°36'1 1.5
2017-Nov-16 05:30N 37°57' E 023°36'1 2.0
2017-Nov-16 05:00N 37°57' E 023°37'0 0.0
2017-Nov-16 04:30N 37°57' E 023°37'0 0.0
2017-Nov-16 04:00N 37°57' E 023°37'0 0.0
2017-Nov-16 03:30N 37°57' E 023°37'0 0.0
2017-Nov-16 03:00N 37°57' E 023°37'0 0.0
2017-Nov-16 02:30N 37°57' E 023°37'0 0.0
2017-Nov-16 02:00N 37°57' E 023°37'0 0.0
2017-Nov-16 01:30N 37°57' E 023°37'0 0.0
2017-Nov-16 01:00N 37°57' E 023°37'0 0.0
2017-Nov-16 00:30N 37°57' E 023°37'0 0.0
2017-Nov-16 00:00N 37°57' E 023°37'0 0.0
2017-Nov-15 23:30N 37°57' E 023°37'0 0.0
2017-Nov-15 23:00N 37°57' E 023°37'0 0.0
2017-Nov-15 22:30N 37°57' E 023°37'0 0.0
2017-Nov-15 22:00N 37°57' E 023°37'0 0.0
2017-Nov-15 21:30N 37°57' E 023°37'0 0.0
2017-Nov-15 21:00N 37°57' E 023°37'0 0.0
2017-Nov-15 20:30N 37°57' E 023°37'0 0.0
2017-Nov-15 20:00N 37°57' E 023°37'0 0.0
2017-Nov-15 19:30N 37°57' E 023°37'0 0.0
2017-Nov-15 19:00N 37°57' E 023°37'0 0.0
2017-Nov-15 18:30N 37°57' E 023°37'0 0.0
2017-Nov-15 18:00N 37°57' E 023°37'0 0.0
2017-Nov-15 17:03N 37°57' E 023°37'0 0.2
2017-Nov-15 17:00N 37°57' E 023°37'0 0.0
2017-Nov-15 16:30N 37°57' E 023°37'0 0.0
2017-Nov-15 16:00N 37°57' E 023°37'0 0.0
2017-Nov-15 15:26N 37°57' E 023°37'0 0.0
2017-Nov-15 14:56N 37°57' E 023°37'0 0.0
2017-Nov-15 14:30N 37°57' E 023°37'0 0.0
2017-Nov-15 14:00N 37°57' E 023°37'0 0.0
2017-Nov-15 13:30N 37°57' E 023°37'0 0.0
2017-Nov-15 13:00N 37°57' E 023°37'0 0.0
2017-Nov-15 12:30N 37°57' E 023°37'0 0.0
2017-Nov-15 12:00N 37°57' E 023°37'0 0.0
2017-Nov-15 11:30N 37°57' E 023°37'0 0.8
2017-Nov-15 11:00N 37°57' E 023°36'0 0.8
2017-Nov-15 10:30N 37°57' E 023°37'0 0.0
2017-Nov-15 10:00N 37°57' E 023°37'0 0.0
2017-Nov-15 09:30N 37°57' E 023°37'0 0.0
2017-Nov-15 09:00N 37°57' E 023°37'0 0.0
2017-Nov-15 08:30N 37°57' E 023°37'0 0.0
2017-Nov-15 08:00N 37°57' E 023°37'0 0.9
2017-Nov-15 07:30N 37°57' E 023°36'0 0.2
2017-Nov-15 07:00N 37°57' E 023°36'0 0.6
2017-Nov-15 06:30N 37°57' E 023°37'0 0.0
2017-Nov-15 06:00N 37°57' E 023°37'0 0.0
2017-Nov-15 05:30N 37°57' E 023°37'  

Dump ship's entire track history